NCAR-RAP Real-Time Weather Data

Output produced by METARs form (23 June 2021  07:35 UTC)
found at http://weather.rap.ucar.edu/surface/
 
CYXE 230700Z 25008KT 15SM SCT120 15/10 A2947 RMK AC3 SLP979 DENSITY ALT 2600FT
CYXE 230600Z 24009KT 15SM FEW100 16/11 A2947 RMK AC2 SLP979 DENSITY ALT 2700FT
CYXE 230500Z 23010KT 15SM FEW100 17/11 A2947 RMK AC1 SLP981 DENSITY ALT 2800FT
CYXE 230400Z 23006KT 15SM FEW100 FEW250 18/11 A2947 RMK AC1CI1 SLP982 DENSITY ALT 3000FT
CYXE 230300Z 24007KT 15SM FEW130 SCT250 22/12 A2947 RMK AC2CI1 SLP980 DENSITY ALT 3400FT
CYXE 230200Z 20009KT 15SM FEW120 BKN250 27/10 A2946 RMK AC1CI5 AC TR SLP976 DENSITY ALT 4000FT
CYXE 230100Z 19006KT 15SM BKN100 BKN150 BKN250 27/09 A2946 RMK AC5AC1CI1 SLP979 DENSITY ALT 3900FT
CYXE 230000Z 20005KT 15SM FEW100 BKN130 BKN250 27/09 A2947 RMK AC1AC5CI1 SLP983 DENSITY ALT 3900FT
CYXE 222300Z 24008KT 15SM BKN130 OVC250 29/07 A2950 RMK AC5CI3 SLP991 DENSITY ALT 4200FT
CYXE 222200Z 26007KT 15SM BKN120 OVC250 28/09 A2953 RMK AC6CI2 SLP001 DENSITY ALT 4000FT
CYXE 222100Z 28014G21KT 230V310 15SM FEW090 BKN130 BKN250 29/07 A2954 RMK AC1AC4CI2 SLP004 DENSITY ALT 4100FT
CYXE 222000Z 25008G20KT 220V290 15SM FEW090 BKN240 30/06 A2954 RMK CU2CI5 SLP004 DENSITY ALT 4200FT